createdAt,value
2017-11-01T00:02:25.825Z,9.17
2017-11-01T00:07:29.030Z,9.53
2017-11-01T00:12:32.243Z,9.10
2017-11-01T00:17:35.538Z,9.57
2017-11-01T00:22:38.845Z,9.13
2017-11-01T00:27:42.008Z,11.17
2017-11-01T00:32:45.280Z,8.57
2017-11-01T00:37:48.467Z,8.93
2017-11-01T00:42:51.914Z,9.20
2017-11-01T00:47:55.868Z,8.70
2017-11-01T00:52:59.087Z,8.90
2017-11-01T00:58:02.274Z,8.97
2017-11-01T01:03:05.527Z,9.20
2017-11-01T01:08:08.727Z,9.93
2017-11-01T01:13:11.903Z,9.27
2017-11-01T01:18:15.109Z,10.50
2017-11-01T01:23:18.291Z,9.90
2017-11-01T01:28:22.258Z,10.20
2017-11-01T01:33:25.466Z,10.00
2017-11-01T01:38:28.648Z,10.20
2017-11-01T01:43:31.861Z,8.27
2017-11-01T01:48:35.223Z,9.67
2017-11-01T01:53:38.398Z,11.30
2017-11-01T01:58:41.583Z,10.70
2017-11-01T02:03:44.760Z,10.53
2017-11-01T02:08:48.706Z,10.27
2017-11-01T02:13:51.894Z,10.93
2017-11-01T02:18:55.941Z,12.00
2017-11-01T02:23:59.150Z,11.80
2017-11-01T02:29:02.339Z,11.70
2017-11-01T02:34:06.290Z,11.97
2017-11-01T02:39:09.586Z,11.30
2017-11-01T02:44:12.773Z,11.25
2017-11-01T02:49:16.711Z,11.43
2017-11-01T02:54:19.886Z,11.67
2017-11-01T02:59:23.090Z,11.80
2017-11-01T03:04:26.287Z,11.83
2017-11-01T03:09:29.523Z,11.50
2017-11-01T03:14:33.600Z,11.60
2017-11-01T03:19:36.777Z,12.83
2017-11-01T03:24:39.939Z,12.60
2017-11-01T03:29:43.109Z,11.27
2017-11-01T03:34:46.291Z,11.80
2017-11-01T03:39:49.480Z,11.20
2017-11-01T03:44:53.502Z,11.60
2017-11-01T03:49:57.430Z,11.87
2017-11-01T03:55:00.610Z,13.43
2017-11-01T04:00:03.798Z,12.60
2017-11-01T04:05:06.947Z,14.27
2017-11-01T04:10:10.142Z,13.83
2017-11-01T04:15:14.102Z,12.40
2017-11-01T04:20:17.270Z,13.67
2017-11-01T04:25:21.217Z,14.33
2017-11-01T04:30:24.550Z,14.30
2017-11-01T04:35:27.762Z,13.15
2017-11-01T04:40:30.941Z,13.93
2017-11-01T04:45:34.109Z,13.87
2017-11-01T04:50:37.553Z,12.60
2017-11-01T04:55:42.539Z,12.70
2017-11-01T05:00:49.412Z,13.70
2017-11-01T05:05:52.594Z,15.80
2017-11-01T05:10:56.558Z,13.47
2017-11-01T05:16:03.733Z,14.53
2017-11-01T05:21:07.030Z,13.60
2017-11-01T05:26:10.963Z,15.10
2017-11-01T05:31:14.127Z,13.70
2017-11-01T05:36:17.278Z,12.93
2017-11-01T05:41:20.458Z,13.30
2017-11-01T05:46:24.447Z,14.37
2017-11-01T05:51:27.620Z,14.83
2017-11-01T05:56:31.592Z,14.45
2017-11-01T06:01:34.758Z,17.13
2017-11-01T06:06:38.854Z,14.00
2017-11-01T06:11:42.814Z,12.93
2017-11-01T06:16:45.967Z,16.00
2017-11-01T06:21:49.939Z,13.30
2017-11-01T06:26:53.109Z,13.93
2017-11-01T06:31:57.131Z,16.20
2017-11-01T06:37:01.069Z,14.90
2017-11-01T06:42:05.329Z,14.25
2017-11-01T06:47:08.607Z,13.60
2017-11-01T06:52:11.973Z,14.00
2017-11-01T06:57:15.198Z,13.80
2017-11-01T07:02:19.259Z,14.38
2017-11-01T07:07:22.441Z,13.97
2017-11-01T07:12:26.412Z,14.13
2017-11-01T07:17:29.554Z,15.03
2017-11-01T07:22:32.740Z,14.70
2017-11-01T07:27:36.060Z,15.47
2017-11-01T07:32:39.467Z,13.70
2017-11-01T07:37:42.682Z,13.30
2017-11-01T07:42:46.681Z,13.03
2017-11-01T07:47:49.873Z,12.67
2017-11-01T07:52:53.069Z,12.40
2017-11-01T07:57:56.274Z,13.50
2017-11-01T08:02:59.489Z,12.70
2017-11-01T08:08:02.689Z,12.87
2017-11-01T08:13:05.932Z,11.93
2017-11-01T08:18:09.257Z,13.73
2017-11-01T08:23:12.444Z,13.40
2017-11-01T08:28:15.784Z,13.07
2017-11-01T08:33:18.994Z,13.40
2017-11-01T08:38:22.185Z,12.53
2017-11-01T08:43:25.355Z,12.40
2017-11-01T08:48:28.550Z,12.23
2017-11-01T08:53:31.746Z,12.55
2017-11-01T08:58:34.942Z,12.27
2017-11-01T09:03:38.962Z,12.50
2017-11-01T09:08:42.924Z,12.63
2017-11-01T09:13:46.139Z,17.33
2017-11-01T09:18:49.379Z,11.20
2017-11-01T09:23:52.577Z,11.57
2017-11-01T09:28:55.828Z,11.63
2017-11-01T09:33:59.024Z,10.82
2017-11-01T09:39:02.986Z,9.70
2017-11-01T09:44:06.194Z,10.17
2017-11-01T09:49:09.425Z,11.30
2017-11-01T09:54:12.627Z,9.40
2017-11-01T09:59:15.849Z,9.90
2017-11-01T10:04:19.138Z,8.27
2017-11-01T10:09:22.357Z,8.07
2017-11-01T10:14:25.629Z,7.83
2017-11-01T10:19:28.811Z,7.70
2017-11-01T10:24:32.773Z,7.73
2017-11-01T10:29:35.962Z,7.47
2017-11-01T10:34:39.227Z,6.30
2017-11-01T10:39:42.469Z,6.20
2017-11-01T10:44:46.477Z,6.20
2017-11-01T10:49:49.754Z,6.03
2017-11-01T10:54:52.979Z,7.90
2017-11-01T10:59:56.995Z,7.37
2017-11-01T11:05:00.183Z,6.17
2017-11-01T11:10:03.371Z,7.30
2017-11-01T11:15:06.590Z,7.35
2017-11-01T11:20:09.898Z,7.40
2017-11-01T11:25:13.133Z,7.43
2017-11-01T11:30:16.313Z,6.00
2017-11-01T11:35:19.589Z,5.82
2017-11-01T11:40:22.780Z,6.00
2017-11-01T11:45:25.999Z,6.33
2017-11-01T11:50:29.195Z,5.70
2017-11-01T11:55:32.378Z,5.40
2017-11-01T12:00:36.350Z,4.60
2017-11-01T12:05:39.667Z,5.75
2017-11-01T12:10:42.875Z,5.90
2017-11-01T12:15:46.216Z,5.40
2017-11-01T12:20:49.421Z,7.63
2017-11-01T12:25:52.738Z,5.75
2017-11-01T12:30:57.186Z,5.23
2017-11-01T12:36:00.487Z,6.90
2017-11-01T12:41:04.610Z,5.80
2017-11-01T12:46:07.878Z,7.07
2017-11-01T12:51:11.639Z,5.00
2017-11-01T12:56:15.769Z,8.23
2017-11-01T13:01:18.971Z,22.53
2017-11-01T13:06:22.983Z,7.93
2017-11-01T13:11:26.191Z,6.70
2017-11-01T13:16:29.400Z,5.47
2017-11-01T13:21:32.665Z,5.83
2017-11-01T13:26:35.868Z,5.87
2017-11-01T13:31:39.061Z,10.37
2017-11-01T13:36:42.252Z,5.90
2017-11-01T13:41:46.209Z,4.63
2017-11-01T13:46:49.414Z,4.80
2017-11-01T13:51:52.594Z,5.07
2017-11-01T13:56:55.820Z,5.33
2017-11-01T14:01:59.021Z,4.17
2017-11-01T14:07:02.222Z,6.20
2017-11-01T14:12:05.418Z,5.17
2017-11-01T14:17:09.397Z,5.23
2017-11-01T14:22:12.745Z,4.80
2017-11-01T14:27:15.993Z,4.27
2017-11-01T14:32:19.193Z,4.60
2017-11-01T14:37:22.411Z,4.95
2017-11-01T14:42:25.617Z,4.00
2017-11-01T14:47:28.799Z,4.93
2017-11-01T14:52:32.015Z,6.97
2017-11-01T14:57:35.223Z,5.00
2017-11-01T15:02:38.550Z,5.00
2017-11-01T15:07:41.887Z,6.90
2017-11-01T15:12:45.111Z,7.80
2017-11-01T15:17:49.068Z,7.03
2017-11-01T15:22:52.263Z,8.10
2017-11-01T15:27:56.238Z,12.35
2017-11-01T15:32:59.493Z,32.20
2017-11-01T15:38:02.686Z,9.13
2017-11-01T15:43:06.649Z,9.90
2017-11-01T15:48:09.861Z,11.20
2017-11-01T15:53:13.093Z,9.07
2017-11-01T15:58:16.332Z,9.33
2017-11-01T16:03:20.349Z,8.07
2017-11-01T16:08:24.310Z,8.90
2017-11-01T16:13:27.528Z,8.33
2017-11-01T16:18:30.721Z,8.60
2017-11-01T16:23:33.932Z,10.33
2017-11-01T16:28:37.535Z,10.00
2017-11-01T16:33:40.743Z,9.00
2017-11-01T16:38:43.917Z,10.27
2017-11-01T16:43:47.136Z,11.37
2017-11-01T16:48:51.061Z,10.40
2017-11-01T16:53:55.046Z,10.15
2017-11-01T16:58:58.239Z,12.73
2017-11-01T17:04:01.483Z,14.30
2017-11-01T17:09:04.669Z,32.30
2017-11-01T17:14:07.879Z,11.30
2017-11-01T17:19:11.050Z,10.30
2017-11-01T17:24:14.349Z,10.33
2017-11-01T17:29:17.502Z,13.13
2017-11-01T17:34:20.803Z,13.10
2017-11-01T17:39:23.963Z,14.27
2017-11-01T17:44:27.131Z,11.33
2017-11-01T17:49:31.104Z,10.83
2017-11-01T17:54:34.300Z,10.47
2017-11-01T17:59:37.490Z,10.60
2017-11-01T18:04:41.534Z,13.07
2017-11-01T18:09:44.723Z,11.23
2017-11-01T18:14:48.594Z,12.87
2017-11-01T18:19:51.800Z,10.80
2017-11-01T18:24:55.165Z,11.73
2017-11-01T18:29:58.562Z,12.17
2017-11-01T18:35:01.734Z,12.27
2017-11-01T18:40:05.052Z,12.63
2017-11-01T18:45:08.252Z,12.23
2017-11-01T18:50:11.429Z,11.60
2017-11-01T18:55:14.624Z,13.77
2017-11-01T19:00:17.888Z,11.93
2017-11-01T19:05:21.478Z,12.57
2017-11-01T19:10:24.644Z,15.20
2017-11-01T19:15:27.848Z,12.17
2017-11-01T19:20:31.028Z,14.23
2017-11-01T19:25:34.977Z,13.20
2017-11-01T19:30:38.188Z,15.50
2017-11-01T19:35:41.391Z,19.27
2017-11-01T19:40:45.383Z,14.67
2017-11-01T19:45:48.607Z,12.77
2017-11-01T19:50:51.803Z,13.03
2017-11-01T19:55:55.039Z,12.40
2017-11-01T20:00:59.009Z,14.70
2017-11-01T20:06:02.202Z,15.30
2017-11-01T20:11:05.399Z,15.43
2017-11-01T20:16:08.594Z,17.83
2017-11-01T20:21:11.995Z,14.60
2017-11-01T20:26:16.004Z,12.90
2017-11-01T20:31:19.195Z,12.83
2017-11-01T20:36:22.466Z,15.27
2017-11-01T20:41:25.672Z,14.47
2017-11-01T20:46:28.888Z,15.70
2017-11-01T20:51:32.116Z,19.07
2017-11-01T20:56:35.464Z,14.57
2017-11-01T21:01:38.682Z,13.50
2017-11-01T21:06:41.874Z,15.80
2017-11-01T21:11:45.995Z,14.77
2017-11-01T21:16:49.266Z,14.17
2017-11-01T21:21:52.513Z,14.43
2017-11-01T21:26:56.492Z,13.20
2017-11-01T21:31:59.711Z,14.13
2017-11-01T21:37:02.902Z,13.80
2017-11-01T21:42:06.196Z,12.63
2017-11-01T21:47:09.406Z,15.00
2017-11-01T21:52:12.657Z,13.80
2017-11-01T21:57:16.639Z,13.63
2017-11-01T22:02:19.867Z,14.40
2017-11-01T22:07:23.103Z,14.17
2017-11-01T22:12:27.214Z,13.10
2017-11-01T22:17:30.415Z,15.43
2017-11-01T22:22:33.610Z,14.80
2017-11-01T22:27:36.805Z,14.35
2017-11-01T22:32:40.011Z,13.00
2017-11-01T22:37:43.220Z,12.40
2017-11-01T22:42:46.441Z,12.97
2017-11-01T22:47:49.706Z,13.70
2017-11-01T22:52:52.970Z,14.43
2017-11-01T22:57:56.911Z,15.07
2017-11-01T23:03:00.871Z,14.30
2017-11-01T23:08:04.210Z,12.67
2017-11-01T23:13:07.406Z,12.90
2017-11-01T23:18:10.791Z,14.20
2017-11-01T23:23:14.061Z,13.60
2017-11-01T23:28:17.422Z,13.70
2017-11-01T23:33:20.641Z,13.70
2017-11-01T23:38:23.805Z,13.90
2017-11-01T23:43:27.138Z,12.50
2017-11-01T23:48:30.583Z,13.10
2017-11-01T23:53:33.779Z,13.97
2017-11-01T23:58:37.158Z,13.30
